Time;durP1;ratioP1;P1;durP2;ratioP2;P2;SDS_P1;SDS_P2;PMS_P1;PMS_P2;Temp;Humidity;BMP_temperature;BMP_pressure;BME280_temperature;BME280_humidity;BME280_pressure;Samples;Min_cycle;Max_cycle;Signal;HPM_P1;HPM_P2
2021/11/04 00:02:10;;;;;;;80.90;32.80;;;3.90;99.90;;;;;;5234559;28;20239;-65
2021/11/04 00:04:42;;;;;;;84.80;34.00;;;4.00;99.90;;;;;;5252224;28;20217;-67
2021/11/04 00:07:15;;;;;;;78.67;30.57;;;4.00;99.90;;;;;;5234168;28;20244;-65
2021/11/04 00:09:46;;;;;;;70.77;29.47;;;4.00;99.90;;;;;;5252041;28;20208;-65
2021/11/04 00:12:23;;;;;;;75.10;31.43;;;4.00;99.90;;;;;;5252149;28;20248;-67
2021/11/04 00:14:55;;;;;;;76.00;30.80;;;4.00;99.90;;;;;;5234592;28;20204;-66
2021/11/04 00:17:27;;;;;;;80.20;30.73;;;4.00;99.90;;;;;;5251756;28;20225;-67
2021/11/04 00:20:00;;;;;;;73.67;29.53;;;4.10;99.90;;;;;;5251796;28;20303;-64
2021/11/04 00:22:38;;;;;;;85.60;28.30;;;4.10;99.90;;;;;;5251489;28;20240;-67
2021/11/04 00:25:10;;;;;;;124.60;29.50;;;4.00;99.90;;;;;;5251661;28;20193;-65
2021/11/04 00:27:45;;;;;;;143.23;35.23;;;4.00;99.90;;;;;;5225887;28;20239;-63
2021/11/04 00:30:17;;;;;;;90.03;30.30;;;4.00;99.90;;;;;;5217741;28;20206;-66
2021/11/04 00:32:52;;;;;;;97.10;28.53;;;4.00;99.90;;;;;;5233304;28;20567;-66
2021/11/04 00:35:24;;;;;;;152.10;26.73;;;3.90;99.90;;;;;;5166169;28;20203;-66
2021/11/04 00:37:57;;;;;;;68.63;24.50;;;3.90;99.90;;;;;;5166257;28;20228;-66
2021/11/04 00:40:29;;;;;;;130.20;28.90;;;3.80;99.90;;;;;;5166738;28;20516;-66
2021/11/04 00:43:01;;;;;;;112.17;25.20;;;3.80;99.90;;;;;;5166170;28;20315;-67
2021/11/04 00:45:33;;;;;;;47.67;21.17;;;3.80;99.90;;;;;;5166089;28;20212;-67
2021/11/04 00:48:05;;;;;;;53.10;22.17;;;3.70;99.90;;;;;;5232775;28;20243;-68
2021/11/04 00:50:39;;;;;;;45.20;21.87;;;3.70;99.90;;;;;;5166497;28;20247;-66
2021/11/04 00:53:16;;;;;;;48.93;22.30;;;3.80;99.90;;;;;;5231037;28;20386;-67
2021/11/04 00:55:51;;;;;;;101.27;21.63;;;3.80;99.90;;;;;;5233325;28;20203;-65
2021/11/04 00:58:23;;;;;;;73.80;20.40;;;3.70;99.90;;;;;;5165984;28;20258;-67
2021/11/04 01:00:57;;;;;;;43.77;19.80;;;3.70;99.90;;;;;;5166283;28;20219;-66
2021/11/04 01:03:31;;;;;;;43.87;19.70;;;3.60;99.90;;;;;;5232388;28;20326;-70
2021/11/04 01:06:03;;;;;;;52.27;21.53;;;3.70;99.90;;;;;;5231741;28;20212;-66
2021/11/04 01:08:35;;;;;;;83.00;22.70;;;3.60;99.90;;;;;;5232271;28;20267;-67
2021/11/04 01:11:08;;;;;;;93.83;24.97;;;3.70;99.90;;;;;;5231659;28;20215;-64
2021/11/04 01:13:40;;;;;;;53.27;23.20;;;3.70;99.90;;;;;;5165407;28;20231;-69
2021/11/04 01:16:12;;;;;;;96.87;24.63;;;3.80;99.90;;;;;;5232684;28;20215;-66
2021/11/04 01:18:45;;;;;;;241.93;29.20;;;3.80;99.90;;;;;;5232267;28;20605;-65
2021/11/04 01:21:19;;;;;;;80.73;25.37;;;3.80;99.90;;;;;;5165582;28;20653;-67
2021/11/04 01:23:54;;;;;;;71.83;24.77;;;3.90;99.90;;;;;;5230785;28;20536;-65
2021/11/04 01:26:28;;;;;;;64.93;24.37;;;4.00;99.90;;;;;;5165712;28;20226;-65
2021/11/04 01:29:01;;;;;;;61.67;24.90;;;4.00;99.90;;;;;;5165572;28;20241;-65
2021/11/04 01:31:33;;;;;;;86.23;24.70;;;4.10;99.90;;;;;;5232128;28;20208;-67
2021/11/04 01:34:06;;;;;;;66.87;25.23;;;4.10;99.90;;;;;;5232135;28;20235;-67
2021/11/04 01:36:40;;;;;;;62.70;24.17;;;4.10;99.90;;;;;;5231317;28;20207;-66
2021/11/04 01:39:13;;;;;;;52.17;22.70;;;4.20;99.90;;;;;;5165559;28;20223;-68
2021/11/04 01:41:45;;;;;;;71.00;25.33;;;4.10;99.90;;;;;;5165245;28;20525;-64
2021/11/04 01:44:19;;;;;;;105.37;27.60;;;4.10;99.90;;;;;;5231161;28;20231;-67
2021/11/04 01:46:51;;;;;;;100.93;26.10;;;4.10;99.90;;;;;;5230691;28;20229;-66
2021/11/04 01:49:24;;;;;;;86.87;26.10;;;4.10;99.90;;;;;;5231100;28;20238;-66
2021/11/04 01:51:56;;;;;;;305.87;40.20;;;4.20;99.90;;;;;;5231427;28;20223;-64
2021/11/04 01:54:28;;;;;;;114.70;37.97;;;4.30;99.90;;;;;;5231898;28;20239;-67
2021/11/04 01:57:00;;;;;;;192.40;44.93;;;4.40;99.90;;;;;;5164985;28;20650;-65
2021/11/04 01:59:36;;;;;;;170.57;42.83;;;4.50;99.90;;;;;;5165124;28;20326;-64
2021/11/04 02:02:23;;;;;;;296.73;49.10;;;4.60;99.90;;;;;;5165364;28;20215;-65
2021/11/04 02:05:06;;;;;;;165.90;48.27;;;4.80;99.90;;;;;;5164783;28;20546;-66
2021/11/04 02:07:48;;;;;;;364.20;50.50;;;4.90;99.90;;;;;;5164568;28;20269;-66
2021/11/04 02:10:31;;;;;;;167.63;45.73;;;5.00;99.90;;;;;;5164473;28;20314;-68
2021/11/04 02:13:09;;;;;;;190.97;45.87;;;5.10;99.90;;;;;;5164723;28;20227;-66
2021/11/04 02:15:42;;;;;;;135.63;42.67;;;5.20;99.90;;;;;;5164992;28;20614;-65
2021/11/04 02:18:17;;;;;;;155.70;43.83;;;5.20;99.90;;;;;;5231198;28;20309;-66
2021/11/04 02:20:52;;;;;;;205.37;47.17;;;5.30;99.90;;;;;;5165131;28;20195;-67
2021/11/04 02:23:48;;;;;;;187.07;44.30;;;5.40;99.90;;;;;;5163733;28;20203;-66
2021/11/04 02:26:21;;;;;;;142.83;41.63;;;5.40;99.90;;;;;;5165189;28;20495;-66
2021/11/04 02:28:53;;;;;;;167.93;44.50;;;5.40;99.90;;;;;;5231170;28;20248;-68
2021/11/04 02:31:26;;;;;;;177.83;44.20;;;5.50;99.90;;;;;;5164713;28;20211;-68
2021/11/04 02:33:59;;;;;;;174.70;43.03;;;5.50;99.90;;;;;;5231482;28;20243;-66
2021/11/04 02:36:32;;;;;;;134.20;41.67;;;5.50;99.90;;;;;;5165210;28;20204;-69
2021/11/04 02:39:04;;;;;;;132.33;43.83;;;5.50;99.90;;;;;;5215218;28;20635;-67
2021/11/04 02:41:36;;;;;;;179.00;43.43;;;5.60;99.90;;;;;;5165470;28;20204;-69
2021/11/04 02:44:11;;;;;;;316.77;48.00;;;5.60;99.90;;;;;;5164638;28;20624;-68
2021/11/04 02:46:43;;;;;;;177.93;43.80;;;5.60;99.90;;;;;;5164560;28;20225;-69
2021/11/04 02:49:17;;;;;;;217.60;43.93;;;5.60;99.90;;;;;;5164165;28;20203;-64
2021/11/04 02:51:52;;;;;;;118.83;39.57;;;5.60;99.90;;;;;;5164389;28;20225;-67
2021/11/04 02:54:24;;;;;;;141.83;43.00;;;5.60;99.90;;;;;;5229174;28;20203;-65
2021/11/04 02:56:59;;;;;;;159.93;42.30;;;5.60;99.90;;;;;;5164322;28;20214;-66
2021/11/04 02:59:31;;;;;;;164.10;42.17;;;5.60;99.90;;;;;;5215686;28;20203;-68
2021/11/04 03:02:03;;;;;;;215.57;43.17;;;5.60;99.90;;;;;;5231756;28;20210;-66
2021/11/04 03:04:38;;;;;;;260.07;46.53;;;5.60;99.90;;;;;;5231825;28;20208;-67
2021/11/04 03:07:12;;;;;;;176.87;42.27;;;5.50;99.90;;;;;;5164175;28;20203;-67
2021/11/04 03:09:47;;;;;;;105.70;39.70;;;5.60;99.90;;;;;;5164221;28;20234;-70
2021/11/04 03:12:18;;;;;;;196.27;44.47;;;5.50;99.90;;;;;;5163920;28;20233;-68
2021/11/04 03:14:52;;;;;;;368.87;50.00;;;5.50;99.90;;;;;;5230878;28;20207;-65
2021/11/04 03:17:25;;;;;;;436.17;49.73;;;5.50;99.90;;;;;;5163825;28;20306;-70
2021/11/04 03:19:58;;;;;;;129.40;40.30;;;5.40;99.90;;;;;;5230403;28;20242;-66
2021/11/04 03:22:30;;;;;;;107.23;39.47;;;5.40;99.90;;;;;;5163837;28;20231;-66
2021/11/04 03:25:03;;;;;;;117.87;39.07;;;5.50;99.90;;;;;;5164084;28;20218;-67
2021/11/04 03:27:39;;;;;;;167.90;44.13;;;5.50;99.90;;;;;;5163468;28;20218;-65
2021/11/04 03:30:16;;;;;;;136.23;44.13;;;5.60;99.90;;;;;;5163688;28;20203;-69
2021/11/04 03:32:49;;;;;;;175.43;48.70;;;5.60;99.90;;;;;;5163288;28;20218;-64
2021/11/04 03:35:24;;;;;;;147.10;47.97;;;5.70;99.90;;;;;;5166277;28;20214;-65
2021/11/04 03:37:57;;;;;;;160.40;46.43;;;5.80;99.90;;;;;;5234138;28;20204;-66
2021/11/04 03:40:30;;;;;;;154.87;47.90;;;5.80;99.90;;;;;;5167300;28;20208;-64
2021/11/04 03:43:03;;;;;;;149.27;47.17;;;5.90;99.90;;;;;;5166994;28;20203;-68
2021/11/04 03:45:37;;;;;;;146.07;47.60;;;5.90;99.90;;;;;;5167221;28;20670;-70
2021/11/04 03:48:09;;;;;;;145.30;45.63;;;6.00;99.90;;;;;;5167283;28;20600;-66
2021/11/04 03:50:41;;;;;;;137.90;45.57;;;6.00;99.90;;;;;;5166988;28;20220;-65
2021/11/04 03:53:16;;;;;;;130.40;45.07;;;6.10;99.90;;;;;;5233738;28;20231;-65
2021/11/04 03:55:51;;;;;;;152.27;47.27;;;6.10;99.90;;;;;;5233909;28;20647;-62
2021/11/04 03:58:27;;;;;;;147.50;48.57;;;6.10;99.90;;;;;;5166969;28;20476;-64
2021/11/04 04:01:00;;;;;;;130.17;44.47;;;6.10;99.90;;;;;;5166772;28;20503;-64
2021/11/04 04:03:32;;;;;;;147.13;45.03;;;6.20;99.90;;;;;;5166696;28;20548;-67
2021/11/04 04:06:11;;;;;;;133.90;42.87;;;6.20;99.90;;;;;;5233852;28;20200;-66
2021/11/04 04:08:52;;;;;;;129.23;42.60;;;6.20;99.90;;;;;;5166588;28;20218;-65
2021/11/04 04:11:27;;;;;;;127.97;43.73;;;6.30;99.90;;;;;;5166503;28;20192;-63
2021/11/04 04:14:01;;;;;;;121.20;41.93;;;6.30;99.90;;;;;;5166992;28;20235;-65
2021/11/04 04:16:35;;;;;;;115.53;41.73;;;6.30;99.90;;;;;;5166405;28;20293;-65
2021/11/04 04:19:08;;;;;;;110.93;41.17;;;6.20;99.90;;;;;;5167225;28;20584;-66
2021/11/04 04:21:43;;;;;;;112.27;40.10;;;6.20;99.90;;;;;;5166048;28;20230;-65
2021/11/04 04:24:15;;;;;;;101.97;38.93;;;6.20;99.90;;;;;;5233939;28;20207;-68
2021/11/04 04:26:49;;;;;;;105.70;38.30;;;6.10;99.90;;;;;;5232664;28;20207;-68
2021/11/04 04:29:21;;;;;;;94.33;37.17;;;6.00;99.90;;;;;;5233229;28;20239;-65
2021/11/04 04:31:56;;;;;;;91.73;36.30;;;6.00;99.90;;;;;;5216678;28;20260;-63
2021/11/04 04:34:28;;;;;;;83.60;34.53;;;6.00;99.90;;;;;;5231663;28;20227;-64
2021/11/04 04:37:01;;;;;;;90.20;36.57;;;5.90;99.90;;;;;;5166040;28;20208;-67
2021/11/04 04:39:33;;;;;;;79.17;34.87;;;5.90;99.90;;;;;;5166383;28;20234;-62
2021/11/04 04:42:08;;;;;;;83.00;35.40;;;5.90;99.90;;;;;;5166047;28;20199;-67
2021/11/04 04:44:40;;;;;;;84.43;35.30;;;5.80;99.90;;;;;;5233571;28;20473;-67
2021/11/04 04:47:12;;;;;;;83.70;33.70;;;5.80;99.90;;;;;;5215393;28;20211;-67
2021/11/04 04:49:44;;;;;;;80.67;34.60;;;5.80;99.90;;;;;;5232593;28;20251;-68
2021/11/04 04:52:19;;;;;;;81.90;34.60;;;5.70;99.90;;;;;;5232643;28;20207;-62
2021/11/04 04:54:51;;;;;;;79.03;33.10;;;5.70;99.90;;;;;;5166091;28;20221;-65
2021/11/04 04:57:23;;;;;;;87.63;35.30;;;5.70;99.90;;;;;;5232601;28;20214;-62
2021/11/04 04:59:59;;;;;;;78.00;34.40;;;5.70;99.90;;;;;;5233062;28;20219;-63
2021/11/04 05:02:31;;;;;;;75.50;33.00;;;5.60;99.90;;;;;;5215700;28;20211;-65
2021/11/04 05:05:03;;;;;;;82.30;35.70;;;5.60;99.90;;;;;;5165833;28;20207;-64
2021/11/04 05:07:35;;;;;;;80.90;34.60;;;5.60;99.90;;;;;;5232716;28;20207;-66
2021/11/04 05:10:13;;;;;;;76.80;33.47;;;5.60;99.90;;;;;;5165874;28;20208;-64
2021/11/04 05:12:45;;;;;;;77.13;33.17;;;5.60;99.90;;;;;;5165465;28;20215;-66
2021/11/04 05:15:17;;;;;;;72.03;31.33;;;5.60;99.90;;;;;;5216154;28;20618;-63
2021/11/04 05:17:52;;;;;;;74.37;32.70;;;5.60;99.90;;;;;;5232071;28;20285;-67
2021/11/04 05:20:24;;;;;;;78.20;34.30;;;5.50;99.90;;;;;;5232118;28;20210;-65
2021/11/04 05:22:56;;;;;;;74.80;31.43;;;5.50;99.90;;;;;;5165327;28;20203;-65
2021/11/04 05:25:29;;;;;;;73.77;32.00;;;5.50;99.90;;;;;;5165864;28;20204;-64
2021/11/04 05:28:03;;;;;;;73.30;32.17;;;5.50;99.90;;;;;;5232495;28;20254;-67
2021/11/04 05:30:37;;;;;;;75.80;32.57;;;5.50;99.90;;;;;;5216782;28;20222;-66
2021/11/04 05:33:10;;;;;;;67.97;31.17;;;5.50;99.90;;;;;;5165186;28;20230;-66
2021/11/04 05:35:42;;;;;;;66.47;30.67;;;5.50;99.90;;;;;;5165908;28;20612;-64
2021/11/04 05:38:14;;;;;;;63.77;30.07;;;5.50;99.90;;;;;;5231237;28;20208;-63
2021/11/04 05:40:49;;;;;;;65.87;30.33;;;5.50;99.90;;;;;;5165050;28;20283;-65
2021/11/04 05:43:22;;;;;;;70.17;32.10;;;5.40;99.90;;;;;;5231281;28;20214;-67
2021/11/04 05:45:56;;;;;;;71.97;32.17;;;5.40;99.90;;;;;;5164825;28;20215;-63
2021/11/04 05:48:30;;;;;;;72.17;31.77;;;5.40;99.90;;;;;;5215991;28;20524;-66
2021/11/04 05:51:02;;;;;;;72.47;32.00;;;5.40;99.90;;;;;;5165725;28;20203;-67
2021/11/04 05:53:34;;;;;;;66.87;31.33;;;5.40;99.90;;;;;;5164964;28;20223;-67
2021/11/04 05:56:06;;;;;;;65.10;29.73;;;5.30;99.90;;;;;;5231582;28;20203;-67
2021/11/04 05:58:39;;;;;;;70.87;31.57;;;5.40;99.90;;;;;;5231056;28;20203;-65
2021/11/04 06:01:11;;;;;;;68.20;31.30;;;5.30;99.90;;;;;;5165062;28;20231;-67
2021/11/04 06:03:45;;;;;;;63.20;29.87;;;5.40;99.90;;;;;;5231183;28;20286;-65
2021/11/04 06:06:18;;;;;;;64.10;30.13;;;5.40;99.90;;;;;;5165571;28;20213;-65
2021/11/04 06:08:52;;;;;;;70.53;32.60;;;5.40;99.90;;;;;;5164923;28;20231;-66
2021/11/04 06:11:26;;;;;;;64.17;30.03;;;5.40;99.90;;;;;;5231615;28;20211;-69
2021/11/04 06:13:58;;;;;;;68.40;29.80;;;5.40;99.90;;;;;;5215629;28;20242;-67
2021/11/04 06:16:31;;;;;;;61.27;28.80;;;5.30;99.90;;;;;;5231629;28;20284;-66
2021/11/04 06:19:06;;;;;;;63.20;30.07;;;5.40;99.90;;;;;;5164526;28;20214;-69
2021/11/04 06:21:39;;;;;;;70.33;31.83;;;5.40;99.90;;;;;;5164482;28;20192;-64
2021/11/04 06:24:13;;;;;;;64.20;29.80;;;5.40;99.90;;;;;;5231069;28;20203;-65
2021/11/04 06:26:45;;;;;;;62.43;30.10;;;5.50;99.90;;;;;;5164826;28;20528;-65
2021/11/04 06:29:17;;;;;;;65.87;30.63;;;5.50;99.90;;;;;;5231288;28;20330;-66
2021/11/04 06:31:49;;;;;;;60.60;28.93;;;5.50;99.90;;;;;;5164702;28;20211;-66
2021/11/04 06:34:21;;;;;;;57.70;28.93;;;5.50;99.90;;;;;;5164567;28;20338;-68
2021/11/04 06:36:53;;;;;;;59.80;29.37;;;5.50;99.90;;;;;;5230783;28;20516;-68
2021/11/04 06:39:25;;;;;;;58.40;30.00;;;5.50;99.90;;;;;;5163810;28;20216;-66
2021/11/04 06:41:57;;;;;;;58.63;28.57;;;5.50;99.90;;;;;;5164260;28;20208;-66
2021/11/04 06:44:29;;;;;;;54.63;28.27;;;5.50;99.90;;;;;;5164696;28;20207;-70
2021/11/04 06:47:02;;;;;;;57.93;28.33;;;5.60;99.90;;;;;;5164110;28;20217;-66
2021/11/04 06:49:38;;;;;;;62.60;28.93;;;5.60;99.90;;;;;;5231459;28;20509;-68
2021/11/04 06:52:14;;;;;;;59.07;28.17;;;5.60;99.90;;;;;;5231150;28;20536;-67
2021/11/04 06:54:48;;;;;;;63.97;29.87;;;5.60;99.90;;;;;;5230861;28;20262;-65
2021/11/04 06:57:21;;;;;;;55.60;27.87;;;5.60;99.90;;;;;;5164528;28;20208;-64
2021/11/04 06:59:57;;;;;;;61.33;28.97;;;5.70;99.90;;;;;;5164184;28;20203;-68
2021/11/04 07:02:38;;;;;;;55.23;28.13;;;5.70;99.90;;;;;;5231541;28;20187;-66
2021/11/04 07:05:13;;;;;;;56.53;28.67;;;5.70;99.90;;;;;;5230896;28;20206;-66
2021/11/04 07:07:52;;;;;;;56.80;27.73;;;5.70;99.90;;;;;;5164037;28;20195;-68
2021/11/04 07:10:24;;;;;;;57.53;29.07;;;5.80;99.90;;;;;;5166798;28;20514;-69
2021/11/04 07:12:59;;;;;;;57.87;29.27;;;5.80;99.90;;;;;;5234884;28;20619;-68
2021/11/04 07:15:31;;;;;;;60.60;28.37;;;5.90;99.90;;;;;;5167490;28;20211;-68
2021/11/04 07:18:03;;;;;;;52.87;27.67;;;5.90;99.90;;;;;;5167876;28;20184;-67
2021/11/04 07:20:40;;;;;;;59.37;29.67;;;6.00;99.90;;;;;;5167690;28;20254;-70
2021/11/04 07:23:18;;;;;;;64.30;29.50;;;6.00;99.90;;;;;;5168222;28;20631;-69
2021/11/04 07:25:54;;;;;;;55.90;27.53;;;6.10;99.90;;;;;;5167232;28;20235;-67
2021/11/04 07:28:28;;;;;;;56.90;28.30;;;6.20;99.90;;;;;;5251415;28;20621;-65
2021/11/04 07:31:01;;;;;;;60.70;30.43;;;6.30;99.90;;;;;;5252945;28;20262;-68
2021/11/04 07:33:34;;;;;;;55.73;29.03;;;6.30;99.90;;;;;;5252575;28;20224;-69
2021/11/04 07:36:11;;;;;;;55.30;28.80;;;6.40;99.90;;;;;;5252724;28;20232;-70
2021/11/04 07:38:47;;;;;;;54.67;28.37;;;6.40;99.90;;;;;;5251980;28;20549;-72
2021/11/04 07:41:20;;;;;;;52.20;28.17;;;6.40;99.90;;;;;;5252703;28;20302;-67
2021/11/04 07:43:52;;;;;;;55.13;28.07;;;6.50;99.90;;;;;;5253689;28;20205;-69
2021/11/04 07:46:27;;;;;;;49.40;27.90;;;6.50;99.90;;;;;;5251250;28;20233;-67
2021/11/04 07:49:01;;;;;;;51.77;28.50;;;6.60;99.90;;;;;;5252614;28;20208;-72
2021/11/04 07:51:35;;;;;;;53.93;28.17;;;6.60;99.90;;;;;;5251246;28;20273;-67
2021/11/04 07:54:10;;;;;;;55.10;28.10;;;6.70;99.90;;;;;;5252116;28;20192;-69
2021/11/04 07:56:42;;;;;;;52.87;28.63;;;6.70;99.90;;;;;;5252439;28;20248;-66
2021/11/04 07:59:14;;;;;;;51.93;28.27;;;6.80;99.90;;;;;;5252725;28;20237;-70
2021/11/04 08:01:46;;;;;;;48.27;27.40;;;6.90;99.90;;;;;;5247193;28;20225;-66
2021/11/04 08:04:18;;;;;;;46.53;26.70;;;6.90;99.90;;;;;;5235213;28;20201;-71
2021/11/04 08:06:52;;;;;;;49.67;27.00;;;6.90;99.90;;;;;;5252156;28;20228;-70
2021/11/04 08:09:26;;;;;;;50.67;27.13;;;7.00;99.90;;;;;;5251954;28;20189;-73
2021/11/04 08:11:59;;;;;;;45.67;26.83;;;7.00;99.90;;;;;;5238975;28;20239;-71
2021/11/04 08:14:31;;;;;;;49.23;24.83;;;7.10;99.90;;;;;;5235649;28;20224;-71
2021/11/04 08:17:10;;;;;;;47.43;25.93;;;7.10;99.90;;;;;;5234911;28;20260;-67
2021/11/04 08:19:41;;;;;;;48.17;26.57;;;7.20;99.90;;;;;;5265417;28;20333;-70
2021/11/04 08:22:15;;;;;;;44.63;24.57;;;7.20;99.90;;;;;;5233462;28;20321;-65
2021/11/04 08:24:48;;;;;;;44.70;24.20;;;7.20;99.90;;;;;;5268466;28;20192;-65
2021/11/04 08:27:22;;;;;;;44.57;25.27;;;7.30;99.90;;;;;;5255381;28;20667;-67
2021/11/04 08:29:59;;;;;;;41.70;25.07;;;7.30;99.90;;;;;;5272736;28;20236;-66
2021/11/04 08:32:31;;;;;;;42.07;23.93;;;7.30;99.90;;;;;;5264436;28;20225;-68
2021/11/04 08:35:03;;;;;;;39.47;23.50;;;7.30;99.90;;;;;;5252690;28;20558;-65
2021/11/04 08:37:39;;;;;;;41.67;24.53;;;7.30;99.90;;;;;;5252809;28;20229;-66
2021/11/04 08:40:11;;;;;;;40.50;24.50;;;7.30;99.90;;;;;;5252058;28;20523;-66
2021/11/04 08:42:44;;;;;;;43.37;24.70;;;7.40;99.90;;;;;;5234231;28;20200;-69
2021/11/04 08:45:22;;;;;;;45.53;25.20;;;7.40;99.90;;;;;;5251159;28;20185;-64
2021/11/04 08:47:54;;;;;;;45.27;26.33;;;7.40;99.90;;;;;;5233575;28;20204;-69
2021/11/04 08:50:27;;;;;;;46.20;25.87;;;7.40;99.90;;;;;;5259529;28;20257;-66
2021/11/04 08:52:59;;;;;;;42.40;24.67;;;7.40;99.90;;;;;;5270984;28;20548;-66
2021/11/04 08:55:31;;;;;;;44.83;25.67;;;7.40;99.90;;;;;;5249661;28;20213;-68
2021/11/04 08:58:04;;;;;;;40.57;24.80;;;7.40;99.90;;;;;;5250299;28;20209;-69
2021/11/04 09:00:37;;;;;;;39.90;23.60;;;7.40;99.90;;;;;;5248432;28;20284;-69
2021/11/04 09:03:09;;;;;;;40.57;24.00;;;7.30;99.90;;;;;;5264836;28;20254;-66
2021/11/04 09:05:44;;;;;;;49.47;25.63;;;7.30;99.90;;;;;;5250589;28;20279;-66
2021/11/04 09:08:21;;;;;;;40.13;25.17;;;7.30;99.90;;;;;;5228003;28;20223;-66
2021/11/04 09:10:54;;;;;;;41.50;24.53;;;7.30;99.90;;;;;;5250592;28;20542;-67
2021/11/04 09:13:26;;;;;;;44.07;25.27;;;7.40;99.90;;;;;;5250660;28;20212;-66
2021/11/04 09:16:00;;;;;;;47.03;26.37;;;7.30;99.90;;;;;;5216785;28;20575;-69
2021/11/04 09:18:32;;;;;;;40.13;24.43;;;7.40;99.90;;;;;;5244153;28;20300;-69
2021/11/04 09:21:05;;;;;;;44.10;24.70;;;7.40;99.90;;;;;;5212945;28;20224;-69
2021/11/04 09:23:37;;;;;;;43.30;24.97;;;7.50;99.90;;;;;;5230451;28;20224;-68
2021/11/04 09:26:09;;;;;;;43.13;23.80;;;7.50;99.90;;;;;;5238019;28;20216;-70
2021/11/04 09:28:44;;;;;;;44.67;24.53;;;7.50;99.90;;;;;;5250647;28;20305;-66
2021/11/04 09:31:17;;;;;;;37.87;23.13;;;7.50;99.90;;;;;;5233055;28;20219;-65
2021/11/04 09:33:49;;;;;;;41.13;24.13;;;7.50;99.90;;;;;;5250389;28;20553;-66
2021/11/04 09:36:25;;;;;;;47.97;30.60;;;7.40;99.90;;;;;;5232908;28;20408;-68
2021/11/04 09:39:04;;;;;;;46.80;27.40;;;7.40;99.90;;;;;;5230409;28;20438;-67
2021/11/04 09:41:36;;;;;;;47.00;25.10;;;7.40;99.90;;;;;;5229502;28;20198;-66
2021/11/04 09:44:12;;;;;;;39.73;24.33;;;7.40;99.90;;;;;;5212260;28;20224;-68
2021/11/04 09:46:44;;;;;;;39.67;24.43;;;7.50;99.90;;;;;;5229462;28;20201;-65
2021/11/04 09:49:18;;;;;;;41.23;23.90;;;7.50;99.90;;;;;;5229489;28;20205;-67
2021/11/04 09:51:55;;;;;;;44.77;24.53;;;7.50;99.90;;;;;;5211969;28;20215;-68
2021/11/04 09:54:28;;;;;;;42.77;24.93;;;7.60;99.90;;;;;;5233166;28;20212;-66
2021/11/04 09:57:01;;;;;;;38.27;23.77;;;7.70;99.90;;;;;;5266759;28;20247;-68
2021/11/04 09:59:36;;;;;;;41.63;24.23;;;7.70;99.90;;;;;;5232534;28;20201;-65
2021/11/04 10:02:29;;;;;;;43.10;23.73;;;7.80;99.90;;;;;;5232114;28;20703;-68
2021/11/04 10:05:07;;;;;;;40.57;23.83;;;7.90;99.90;;;;;;5262345;28;20276;-65
2021/11/04 10:07:49;;;;;;;37.80;23.50;;;8.00;99.90;;;;;;5270613;28;20537;-65
2021/11/04 10:10:21;;;;;;;38.17;22.67;;;8.10;99.90;;;;;;5270517;28;20204;-66
2021/11/04 10:13:06;;;;;;;37.90;23.00;;;8.20;99.90;;;;;;5270401;28;20214;-66
2021/11/04 10:15:43;;;;;;;37.57;22.37;;;8.20;99.90;;;;;;5270374;28;20678;-66
2021/11/04 10:18:21;;;;;;;35.20;21.63;;;8.30;99.90;;;;;;5252639;28;20176;-68
2021/11/04 10:20:57;;;;;;;42.33;22.97;;;8.30;99.90;;;;;;5232454;28;20197;-66
2021/11/04 10:23:37;;;;;;;36.93;21.67;;;8.30;99.90;;;;;;5248889;28;20211;-66
2021/11/04 10:26:21;;;;;;;36.33;22.83;;;8.30;99.90;;;;;;5249000;28;20215;-68
2021/11/04 10:29:06;;;;;;;45.00;23.70;;;8.40;99.90;;;;;;5238821;28;20236;-67
2021/11/04 10:31:50;;;;;;;38.77;22.03;;;8.40;99.90;;;;;;5261297;28;20210;-66
2021/11/04 10:34:27;;;;;;;37.07;22.93;;;8.30;99.90;;;;;;5270324;28;20216;-65
2021/11/04 10:37:19;;;;;;;39.47;23.70;;;8.30;99.90;;;;;;5285587;28;20203;-65
2021/11/04 10:40:04;;;;;;;45.07;24.83;;;8.30;99.90;;;;;;5270178;28;20204;-66
2021/11/04 10:42:56;;;;;;;44.00;26.93;;;8.40;99.90;;;;;;5252697;28;20217;-71
2021/11/04 10:45:28;;;;;;;54.93;28.97;;;8.30;99.90;;;;;;5248229;28;20212;-66
2021/11/04 10:48:31;;;;;;;49.43;28.10;;;8.20;99.90;;;;;;5257535;28;20525;-65
2021/11/04 10:51:03;;;;;;;57.23;29.23;;;8.20;99.90;;;;;;5257807;28;20199;-67
2021/11/04 10:53:35;;;;;;;50.67;29.33;;;8.20;99.90;;;;;;5269611;28;20239;-65
2021/11/04 10:56:17;;;;;;;57.17;31.67;;;8.20;99.90;;;;;;5269159;28;20651;-64
2021/11/04 10:58:57;;;;;;;54.00;31.57;;;8.20;99.90;;;;;;5257772;28;20240;-66
2021/11/04 11:01:30;;;;;;;55.53;30.37;;;8.20;99.90;;;;;;5249141;28;20200;-68
2021/11/04 11:04:23;;;;;;;55.07;29.90;;;8.10;99.90;;;;;;5248948;28;20220;-65
2021/11/04 11:06:55;;;;;;;55.83;30.50;;;8.20;99.90;;;;;;5248028;28;20195;-67
2021/11/04 11:09:33;;;;;;;56.17;30.13;;;8.20;99.90;;;;;;5264503;28;20663;-65
2021/11/04 11:12:07;;;;;;;55.33;30.93;;;8.30;99.90;;;;;;5269474;28;20195;-53
2021/11/04 11:14:41;;;;;;;54.63;29.87;;;8.20;99.90;;;;;;5264720;28;20227;-59
2021/11/04 11:17:16;;;;;;;54.13;29.47;;;8.30;99.90;;;;;;5249236;28;20227;-51
2021/11/04 11:19:49;;;;;;;52.70;30.17;;;8.30;99.90;;;;;;5249132;28;20228;-56
2021/11/04 11:22:21;;;;;;;53.10;30.03;;;8.40;99.90;;;;;;5248416;28;20201;-54
2021/11/04 11:24:55;;;;;;;54.83;31.17;;;8.40;99.90;;;;;;5255086;28;20236;-52
2021/11/04 11:27:27;;;;;;;54.80;30.50;;;8.40;99.90;;;;;;5251888;28;20219;-66
2021/11/04 11:29:59;;;;;;;57.70;31.73;;;8.30;99.90;;;;;;5269394;28;20259;-65
2021/11/04 11:32:34;;;;;;;62.63;32.70;;;8.30;99.90;;;;;;5251626;28;20225;-64
2021/11/04 11:37:56;;;;;;;54.20;31.10;;;8.30;99.90;;;;;;5269771;28;20214;-64
2021/11/04 11:40:30;;;;;;;52.23;28.57;;;8.30;99.90;;;;;;5247748;28;20324;-66
2021/11/04 11:43:12;;;;;;;49.23;28.07;;;8.20;99.90;;;;;;5248967;28;20217;-65
2021/11/04 11:46:02;;;;;;;43.53;25.37;;;8.20;99.90;;;;;;5248475;28;20240;-66
2021/11/04 11:48:34;;;;;;;42.07;23.53;;;8.20;99.90;;;;;;5231342;28;20512;-65
2021/11/04 11:51:07;;;;;;;35.47;21.10;;;8.10;99.90;;;;;;5231862;28;20205;-67
2021/11/04 11:53:53;;;;;;;35.83;21.40;;;8.10;99.90;;;;;;5248151;28;20209;-64
2021/11/04 11:56:25;;;;;;;39.40;21.17;;;8.10;99.90;;;;;;5264692;28;20227;-64
2021/11/04 11:59:22;;;;;;;35.87;19.73;;;8.10;99.90;;;;;;5242480;28;20214;-66
2021/11/04 12:01:56;;;;;;;32.37;20.83;;;8.10;99.90;;;;;;5257270;28;20208;-66
2021/11/04 12:04:34;;;;;;;35.53;20.43;;;8.10;99.90;;;;;;5255638;28;20205;-66
2021/11/04 12:07:29;;;;;;;33.13;19.80;;;8.10;99.90;;;;;;5251839;28;20208;-67
2021/11/04 12:10:01;;;;;;;38.60;20.17;;;8.10;99.90;;;;;;5199886;28;20201;-68
2021/11/04 12:12:42;;;;;;;32.90;19.10;;;8.10;99.90;;;;;;5213874;28;20209;-66
2021/11/04 12:15:15;;;;;;;33.63;20.10;;;8.10;99.90;;;;;;5213510;28;20225;-67
2021/11/04 12:18:10;;;;;;;32.77;19.97;;;8.10;99.90;;;;;;5231510;28;20284;-67
2021/11/04 12:20:58;;;;;;;36.00;20.10;;;8.00;99.90;;;;;;5230206;28;20201;-67
2021/11/04 12:23:48;;;;;;;36.07;20.33;;;8.00;99.90;;;;;;5231037;28;20198;-65
2021/11/04 12:26:28;;;;;;;33.07;19.60;;;8.00;99.90;;;;;;5230585;28;20229;-66
2021/11/04 12:29:05;;;;;;;36.43;20.37;;;8.00;99.90;;;;;;5242790;28;20239;-66
2021/11/04 12:31:44;;;;;;;33.10;19.40;;;7.90;99.90;;;;;;5251955;28;20521;-66
2021/11/04 12:34:22;;;;;;;35.67;20.17;;;7.90;99.90;;;;;;5251852;28;20189;-68
2021/11/04 12:36:59;;;;;;;34.43;19.27;;;7.90;99.90;;;;;;5253187;28;20504;-67
2021/11/04 12:39:35;;;;;;;30.67;18.83;;;7.90;99.90;;;;;;5272765;28;20530;-64
2021/11/04 12:42:07;;;;;;;37.80;19.53;;;7.80;99.90;;;;;;5237875;28;20622;-65
2021/11/04 12:44:40;;;;;;;33.30;19.67;;;7.80;99.90;;;;;;5221855;28;20213;-67
2021/11/04 12:47:17;;;;;;;30.43;18.97;;;7.80;99.90;;;;;;5266553;28;20339;-67
2021/11/04 12:49:51;;;;;;;31.63;19.13;;;7.80;99.90;;;;;;5272618;28;20238;-67
2021/11/04 12:52:27;;;;;;;32.30;18.23;;;7.80;99.90;;;;;;5266948;28;20255;-65
2021/11/04 12:55:01;;;;;;;30.43;18.77;;;7.80;99.90;;;;;;5251485;28;20670;-65
2021/11/04 12:57:34;;;;;;;34.13;19.97;;;7.70;99.90;;;;;;5237415;28;20302;-68
2021/11/04 13:00:15;;;;;;;34.27;19.93;;;7.80;99.90;;;;;;5272925;28;20268;-64
2021/11/04 13:02:47;;;;;;;32.60;18.87;;;7.80;99.90;;;;;;5238971;28;20234;-68
2021/11/04 13:05:21;;;;;;;28.60;17.97;;;7.80;99.90;;;;;;5272477;28;20216;-65
2021/11/04 13:07:57;;;;;;;33.20;18.27;;;7.70;99.90;;;;;;5271164;28;20227;-69
2021/11/04 13:10:32;;;;;;;32.23;18.00;;;7.70;99.90;;;;;;5271639;28;20207;-67
2021/11/04 13:13:05;;;;;;;29.27;18.00;;;7.70;99.90;;;;;;5253760;28;20506;-69
2021/11/04 13:15:39;;;;;;;30.00;17.60;;;7.70;99.90;;;;;;5253569;28;20216;-66
2021/11/04 13:18:13;;;;;;;36.77;18.17;;;7.70;99.90;;;;;;5271508;28;20308;-67